createdAt,value
2022-09-28T00:02:18.610Z,78.83
2022-09-28T00:04:46.162Z,79.37
2022-09-28T00:07:12.771Z,79.26
2022-09-28T00:09:39.227Z,79.19
2022-09-28T00:12:06.014Z,79.43
2022-09-28T00:14:32.744Z,79.40
2022-09-28T00:16:59.303Z,79.90
2022-09-28T00:19:25.976Z,79.55
2022-09-28T00:21:52.468Z,79.58
2022-09-28T00:24:21.993Z,79.58
2022-09-28T00:26:53.610Z,79.68
2022-09-28T00:29:26.707Z,79.63
2022-09-28T00:31:59.172Z,79.98
2022-09-28T00:34:26.633Z,80.81
2022-09-28T00:36:53.336Z,81.52
2022-09-28T00:39:19.921Z,80.81
2022-09-28T00:41:46.667Z,81.02
2022-09-28T00:44:41.882Z,81.02
2022-09-28T00:47:42.630Z,80.84
2022-09-28T00:50:29.468Z,80.74
2022-09-28T00:53:17.831Z,81.22
2022-09-28T00:55:51.594Z,81.31
2022-09-28T00:58:23.340Z,80.98
2022-09-28T01:00:50.176Z,81.19
2022-09-28T01:03:17.224Z,80.85
2022-09-28T01:06:15.656Z,80.51
2022-09-28T01:09:55.439Z,80.56
2022-09-28T01:13:05.908Z,81.03
2022-09-28T01:16:01.779Z,80.71
2022-09-28T01:19:05.974Z,80.74
2022-09-28T01:22:36.739Z,81.41
2022-09-28T01:25:49.635Z,80.94
2022-09-28T01:29:18.839Z,80.81
2022-09-28T01:32:48.657Z,80.58
2022-09-28T01:35:44.473Z,80.46
2022-09-28T01:39:15.762Z,81.10
2022-09-28T01:42:11.715Z,80.79
2022-09-28T01:45:22.732Z,80.88
2022-09-28T01:48:30.721Z,80.95
2022-09-28T01:51:41.743Z,80.87
2022-09-28T01:54:51.662Z,80.94
2022-09-28T01:57:58.767Z,80.83
2022-09-28T02:04:36.713Z,82.24
2022-09-28T02:07:44.725Z,81.78
2022-09-28T02:10:52.750Z,81.77
2022-09-28T02:13:59.666Z,81.54
2022-09-28T02:17:06.697Z,81.52
2022-09-28T02:20:11.699Z,81.47
2022-09-28T02:23:19.745Z,81.31
2022-09-28T02:26:26.674Z,81.09
2022-09-28T02:29:37.750Z,81.42
2022-09-28T02:32:47.721Z,81.49
2022-09-28T02:35:54.723Z,80.97
2022-09-28T02:39:01.656Z,80.86
2022-09-28T02:42:05.715Z,80.95
2022-09-28T02:45:00.879Z,81.46
2022-09-28T02:48:01.775Z,81.16
2022-09-28T02:51:15.356Z,81.34
2022-09-28T02:54:41.421Z,83.23
2022-09-28T02:57:49.134Z,82.43
2022-09-28T03:00:29.111Z,82.40
2022-09-28T03:03:34.229Z,82.09
2022-09-28T03:06:48.720Z,83.14
2022-09-28T03:09:39.797Z,82.29
2022-09-28T03:12:49.686Z,82.25
2022-09-28T03:15:56.707Z,82.26
2022-09-28T03:18:44.654Z,82.27
2022-09-28T03:21:54.421Z,82.21
2022-09-28T03:25:07.386Z,82.37
2022-09-28T03:27:48.463Z,82.27
2022-09-28T03:30:20.390Z,82.44
2022-09-28T03:33:46.596Z,82.52
2022-09-28T03:36:55.706Z,82.79
2022-09-28T03:39:58.834Z,83.55
2022-09-28T03:42:46.789Z,83.82
2022-09-28T03:45:27.233Z,83.30
2022-09-28T03:48:20.598Z,83.67
2022-09-28T03:51:13.117Z,85.96
2022-09-28T03:54:01.162Z,85.41
2022-09-28T03:56:48.467Z,86.33
2022-09-28T03:59:40.157Z,85.08
2022-09-28T04:02:27.671Z,84.38
2022-09-28T04:05:14.124Z,84.07
2022-09-28T04:08:21.506Z,83.79
2022-09-28T04:11:06.336Z,84.41
2022-09-28T04:14:13.428Z,84.12
2022-09-28T04:17:07.567Z,84.19
2022-09-28T04:20:14.711Z,83.80
2022-09-28T04:23:15.848Z,83.61
2022-09-28T04:27:01.953Z,84.13
2022-09-28T04:30:28.328Z,83.95
2022-09-28T04:33:42.438Z,84.89
2022-09-28T04:36:21.820Z,85.14
2022-09-28T04:38:53.242Z,85.57
2022-09-28T04:41:22.322Z,85.18
2022-09-28T04:43:49.710Z,84.81
2022-09-28T04:46:16.649Z,84.59
2022-09-28T04:48:51.952Z,84.48
2022-09-28T04:51:31.533Z,84.36
2022-09-28T04:53:58.487Z,84.36
2022-09-28T04:56:25.547Z,84.17
2022-09-28T04:58:52.993Z,84.01
2022-09-28T05:01:22.759Z,83.94
2022-09-28T05:04:09.093Z,83.78
2022-09-28T05:06:46.579Z,83.55
2022-09-28T05:09:14.181Z,83.41
2022-09-28T05:11:41.304Z,83.32
2022-09-28T05:14:13.369Z,83.17
2022-09-28T05:16:40.241Z,83.17
2022-09-28T05:19:19.621Z,83.04
2022-09-28T05:21:48.033Z,83.04
2022-09-28T05:24:14.735Z,83.07
2022-09-28T05:26:44.386Z,83.02
2022-09-28T05:29:11.069Z,82.99
2022-09-28T05:31:48.568Z,83.01
2022-09-28T05:34:28.606Z,82.96
2022-09-28T05:36:55.282Z,82.87
2022-09-28T05:39:21.890Z,83.10
2022-09-28T05:41:48.331Z,82.89
2022-09-28T05:44:15.120Z,83.05
2022-09-28T05:46:42.482Z,83.03
2022-09-28T05:49:10.315Z,82.83
2022-09-28T05:51:38.575Z,82.73
2022-09-28T05:54:06.334Z,82.54
2022-09-28T05:56:35.199Z,82.06
2022-09-28T05:59:05.442Z,81.86
2022-09-28T06:01:32.071Z,81.85
2022-09-28T06:03:59.838Z,81.77
2022-09-28T06:06:26.993Z,81.56
2022-09-28T06:08:53.904Z,81.32
2022-09-28T06:11:43.087Z,81.16
2022-09-28T06:14:22.213Z,80.74
2022-09-28T06:16:49.464Z,80.70
2022-09-28T06:19:21.547Z,80.01
2022-09-28T06:22:08.333Z,79.94
2022-09-28T06:24:43.150Z,79.86
2022-09-28T06:27:10.639Z,79.71
2022-09-28T06:29:37.205Z,79.19
2022-09-28T06:32:03.924Z,79.19
2022-09-28T06:34:30.592Z,78.70
2022-09-28T06:36:58.296Z,78.71
2022-09-28T06:39:25.281Z,78.22
2022-09-28T06:41:52.107Z,78.34
2022-09-28T06:44:20.131Z,78.31
2022-09-28T06:47:06.972Z,77.88
2022-09-28T06:49:54.726Z,77.51
2022-09-28T06:52:41.519Z,76.36
2022-09-28T06:55:32.600Z,76.09
2022-09-28T06:58:06.811Z,75.99
2022-09-28T07:00:38.117Z,76.40
2022-09-28T07:03:10.138Z,76.64
2022-09-28T07:05:59.081Z,76.64
2022-09-28T07:08:47.758Z,76.28
2022-09-28T07:11:39.076Z,75.55
2022-09-28T07:14:41.151Z,75.39
2022-09-28T07:17:14.192Z,73.74
2022-09-28T07:19:42.038Z,72.38
2022-09-28T07:22:08.558Z,70.86
2022-09-28T07:24:35.188Z,71.31
2022-09-28T07:27:16.159Z,70.38
2022-09-28T07:30:05.395Z,69.84
2022-09-28T07:32:47.763Z,68.99
2022-09-28T07:35:34.267Z,68.87
2022-09-28T07:38:03.425Z,68.77
2022-09-28T07:40:48.694Z,69.03
2022-09-28T07:43:20.126Z,68.83
2022-09-28T07:45:51.860Z,69.04
2022-09-28T07:48:19.677Z,66.93
2022-09-28T07:51:00.631Z,67.72
2022-09-28T07:53:38.352Z,68.54
2022-09-28T07:56:25.568Z,68.61
2022-09-28T07:59:05.099Z,67.63
2022-09-28T08:01:48.880Z,66.81
2022-09-28T08:05:06.407Z,65.00
2022-09-28T08:08:06.206Z,61.41
2022-09-28T08:10:56.790Z,62.96
2022-09-28T08:14:00.712Z,63.27
2022-09-28T08:17:14.251Z,61.63
2022-09-28T08:20:10.606Z,61.71
2022-09-28T08:23:09.300Z,61.96
2022-09-28T08:26:00.578Z,62.71
2022-09-28T08:28:38.595Z,61.44
2022-09-28T08:31:41.375Z,61.80
2022-09-28T08:35:28.489Z,60.42
2022-09-28T08:38:20.329Z,58.36
2022-09-28T08:41:33.164Z,57.56
2022-09-28T08:44:36.644Z,58.24
2022-09-28T08:47:41.234Z,58.51
2022-09-28T08:50:32.127Z,55.96
2022-09-28T08:53:41.893Z,55.21
2022-09-28T08:56:27.266Z,54.64
2022-09-28T08:58:59.420Z,54.19
2022-09-28T09:01:36.747Z,53.79
2022-09-28T09:04:07.151Z,54.53
2022-09-28T09:07:17.217Z,53.59
2022-09-28T09:10:17.351Z,52.47
2022-09-28T09:13:00.050Z,52.31
2022-09-28T09:15:53.712Z,52.27
2022-09-28T09:18:49.288Z,52.07
2022-09-28T09:21:49.568Z,53.77
2022-09-28T09:24:26.735Z,53.65
2022-09-28T09:27:05.960Z,52.44
2022-09-28T09:29:54.772Z,52.01
2022-09-28T09:32:44.447Z,53.49
2022-09-28T09:35:31.416Z,54.03
2022-09-28T09:38:49.200Z,52.30
2022-09-28T09:41:57.054Z,50.35
2022-09-28T09:45:14.273Z,51.06
2022-09-28T09:48:07.135Z,48.61
2022-09-28T09:50:52.207Z,48.26
2022-09-28T09:53:38.463Z,47.92
2022-09-28T09:56:20.423Z,49.71
2022-09-28T09:59:15.349Z,51.06
2022-09-28T10:02:11.676Z,51.51
2022-09-28T10:04:51.934Z,50.04
2022-09-28T10:07:29.072Z,51.28
2022-09-28T10:10:00.043Z,50.51
2022-09-28T10:12:38.602Z,50.51
2022-09-28T10:15:07.466Z,48.34
2022-09-28T10:17:40.683Z,46.65
2022-09-28T10:20:53.843Z,46.21
2022-09-28T10:24:10.788Z,46.47
2022-09-28T10:27:21.731Z,47.35
2022-09-28T10:34:13.523Z,46.30
2022-09-28T10:37:20.922Z,44.86
2022-09-28T10:40:24.855Z,42.52
2022-09-28T10:43:37.475Z,44.21
2022-09-28T10:46:47.758Z,43.51
2022-09-28T10:49:54.241Z,43.17
2022-09-28T10:53:24.771Z,41.02
2022-09-28T10:56:34.222Z,40.98
2022-09-28T10:59:49.840Z,38.89
2022-09-28T11:07:42.264Z,39.17
2022-09-28T11:11:37.957Z,41.67
2022-09-28T11:15:08.316Z,43.36
2022-09-28T11:22:26.923Z,44.69
2022-09-28T11:25:40.860Z,44.62
2022-09-28T11:29:13.249Z,43.65
2022-09-28T11:32:43.729Z,43.76
2022-09-28T11:36:32.950Z,42.56
2022-09-28T11:40:05.286Z,42.46
2022-09-28T11:43:42.330Z,43.62
2022-09-28T12:01:22.769Z,39.58
2022-09-28T12:04:54.927Z,36.97
2022-09-28T12:08:12.723Z,35.76
2022-09-28T12:11:41.660Z,35.94
2022-09-28T12:14:55.090Z,34.83
2022-09-28T12:17:38.014Z,35.05
2022-09-28T12:20:42.119Z,35.00
2022-09-28T12:23:19.051Z,36.05
2022-09-28T12:25:58.176Z,37.17
2022-09-28T12:28:37.190Z,37.70
2022-09-28T12:31:29.834Z,38.24
2022-09-28T12:34:06.073Z,39.06
2022-09-28T12:37:14.232Z,39.69
2022-09-28T12:40:10.420Z,40.00
2022-09-28T12:43:01.855Z,40.93
2022-09-28T12:46:14.790Z,41.31
2022-09-28T12:53:21.762Z,43.40
2022-09-28T12:56:16.752Z,43.86
2022-09-28T12:59:06.545Z,43.88
2022-09-28T13:02:05.036Z,44.39
2022-09-28T13:05:05.814Z,44.88
2022-09-28T13:07:55.211Z,44.51
2022-09-28T13:10:38.671Z,44.78
2022-09-28T13:13:40.217Z,45.04
2022-09-28T13:16:33.857Z,45.26
2022-09-28T13:20:00.618Z,45.78
2022-09-28T13:22:55.089Z,45.87
2022-09-28T13:25:27.918Z,46.25
2022-09-28T13:28:03.936Z,46.38
2022-09-28T13:30:35.741Z,46.12
2022-09-28T13:33:08.416Z,46.64
2022-09-28T13:35:44.971Z,46.98
2022-09-28T13:38:31.428Z,47.10
2022-09-28T13:41:15.835Z,47.46
2022-09-28T13:44:17.044Z,47.84
2022-09-28T13:47:06.692Z,48.22
2022-09-28T13:50:08.240Z,48.20
2022-09-28T13:52:56.890Z,48.63
2022-09-28T13:55:36.269Z,49.17
2022-09-28T13:58:22.859Z,49.33
2022-09-28T14:01:03.496Z,49.41
2022-09-28T14:04:21.835Z,49.49
2022-09-28T14:07:21.341Z,50.54
2022-09-28T14:10:16.778Z,50.60
2022-09-28T14:13:25.405Z,51.20
2022-09-28T14:16:17.435Z,51.14
2022-09-28T14:19:01.558Z,51.39
2022-09-28T14:22:17.674Z,51.57
2022-09-28T14:25:20.959Z,51.87
2022-09-28T14:32:07.899Z,52.29
2022-09-28T14:38:34.173Z,52.69
2022-09-28T14:39:49.367Z,52.61
2022-09-28T14:43:07.794Z,52.94
2022-09-28T14:46:16.267Z,53.08
2022-09-28T14:49:26.744Z,53.09
2022-09-28T14:53:05.969Z,53.20
2022-09-28T14:55:58.910Z,52.96
2022-09-28T14:58:52.587Z,52.99
2022-09-28T15:01:42.573Z,52.87
2022-09-28T15:04:16.228Z,52.94
2022-09-28T15:06:47.184Z,52.87
2022-09-28T15:09:35.169Z,52.82
2022-09-28T15:12:08.278Z,52.97
2022-09-28T15:15:08.750Z,53.24
2022-09-28T15:17:40.447Z,53.09
2022-09-28T15:20:34.936Z,53.40
2022-09-28T15:23:41.487Z,53.23
2022-09-28T15:26:27.436Z,53.16
2022-09-28T15:28:56.368Z,53.10
2022-09-28T15:31:27.196Z,53.30
2022-09-28T15:34:12.775Z,53.57
2022-09-28T15:36:47.724Z,53.36
2022-09-28T15:39:45.415Z,53.27
2022-09-28T15:42:40.218Z,53.30
2022-09-28T15:45:37.758Z,53.43
2022-09-28T15:48:32.596Z,53.43
2022-09-28T15:52:00.137Z,53.54
2022-09-28T15:54:47.051Z,53.65
2022-09-28T15:58:15.254Z,53.86
2022-09-28T16:01:30.911Z,54.51
2022-09-28T16:04:22.490Z,54.54
2022-09-28T16:07:55.236Z,54.75
2022-09-28T16:11:03.926Z,54.70
2022-09-28T16:13:47.044Z,55.06
2022-09-28T16:16:16.933Z,55.04
2022-09-28T16:19:09.518Z,55.07
2022-09-28T16:21:59.927Z,55.03
2022-09-28T16:24:33.848Z,55.10
2022-09-28T16:27:23.894Z,55.20
2022-09-28T16:30:28.878Z,55.39
2022-09-28T16:33:02.734Z,56.02
2022-09-28T16:35:48.885Z,56.97
2022-09-28T16:38:18.454Z,57.42
2022-09-28T16:40:49.859Z,58.02
2022-09-28T16:43:28.787Z,58.78
2022-09-28T16:48:49.857Z,60.22
2022-09-28T16:51:20.071Z,60.48
2022-09-28T16:54:08.419Z,60.79
2022-09-28T16:57:16.527Z,61.18
2022-09-28T17:05:30.136Z,61.63
2022-09-28T17:08:40.196Z,61.94
2022-09-28T17:11:28.824Z,61.97
2022-09-28T17:14:37.327Z,61.80
2022-09-28T17:18:05.219Z,62.08
2022-09-28T17:20:58.712Z,62.75
2022-09-28T17:24:24.790Z,63.16
2022-09-28T17:27:26.326Z,64.18
2022-09-28T17:30:58.234Z,64.44
2022-09-28T17:34:25.100Z,65.43
2022-09-28T17:37:22.697Z,65.72
2022-09-28T17:40:33.522Z,65.31
2022-09-28T17:44:05.713Z,65.34
2022-09-28T17:47:34.612Z,65.54
2022-09-28T17:50:28.717Z,66.19
2022-09-28T17:53:41.560Z,65.76
2022-09-28T17:56:16.697Z,65.56
2022-09-28T17:59:06.795Z,65.27
2022-09-28T18:03:03.559Z,65.20
2022-09-28T18:06:16.777Z,64.96
2022-09-28T18:09:12.727Z,64.81
2022-09-28T18:11:46.614Z,65.20
2022-09-28T18:14:14.770Z,64.85
2022-09-28T18:16:42.871Z,64.78
2022-09-28T18:19:10.791Z,65.12
2022-09-28T18:21:38.749Z,64.76
2022-09-28T18:24:06.691Z,64.89
2022-09-28T18:26:34.648Z,64.95
2022-09-28T18:29:02.911Z,64.71
2022-09-28T18:32:07.964Z,64.71
2022-09-28T18:34:53.950Z,65.15
2022-09-28T18:37:22.012Z,64.94
2022-09-28T18:39:50.024Z,64.87
2022-09-28T18:42:19.345Z,64.53
2022-09-28T18:44:47.465Z,65.10
2022-09-28T18:47:15.804Z,65.15
2022-09-28T18:49:46.732Z,64.92
2022-09-28T18:52:14.904Z,64.89
2022-09-28T18:54:42.843Z,64.82
2022-09-28T18:57:10.931Z,64.63
2022-09-28T18:59:39.006Z,64.58
2022-09-28T19:02:07.100Z,64.52
2022-09-28T19:04:35.138Z,64.62
2022-09-28T19:07:03.119Z,65.37
2022-09-28T19:09:31.452Z,65.68
2022-09-28T19:11:59.525Z,66.43
2022-09-28T19:14:28.766Z,66.53
2022-09-28T19:16:57.011Z,67.21
2022-09-28T19:19:25.007Z,66.46
2022-09-28T19:21:53.040Z,66.00
2022-09-28T19:24:21.523Z,66.55
2022-09-28T19:26:50.866Z,66.22
2022-09-28T19:29:19.120Z,66.86
2022-09-28T19:31:51.713Z,73.05
2022-09-28T19:34:19.787Z,72.40
2022-09-28T19:36:47.768Z,70.53
2022-09-28T19:39:15.897Z,70.71
2022-09-28T19:41:47.827Z,69.83
2022-09-28T19:44:27.894Z,72.02
2022-09-28T19:47:00.420Z,70.44
2022-09-28T19:49:32.986Z,70.98
2022-09-28T19:52:12.550Z,72.32
2022-09-28T19:54:57.164Z,71.07
2022-09-28T19:57:27.789Z,70.72
2022-09-28T20:00:01.762Z,70.82
2022-09-28T20:02:34.291Z,70.59
2022-09-28T20:05:04.293Z,70.72
2022-09-28T20:07:34.153Z,70.73
2022-09-28T20:10:02.249Z,71.43
2022-09-28T20:12:30.825Z,70.44
2022-09-28T20:14:59.194Z,70.64
2022-09-28T20:17:27.588Z,70.49
2022-09-28T20:19:55.548Z,71.09
2022-09-28T20:22:23.677Z,70.98
2022-09-28T20:24:51.799Z,70.47
2022-09-28T20:27:22.109Z,70.91
2022-09-28T20:29:53.765Z,70.89
2022-09-28T20:32:21.844Z,70.75
2022-09-28T20:34:49.919Z,70.82
2022-09-28T20:37:17.889Z,70.99
2022-09-28T20:39:45.753Z,70.92
2022-09-28T20:42:15.435Z,74.16
2022-09-28T20:44:43.948Z,73.72
2022-09-28T20:47:12.020Z,74.19
2022-09-28T20:49:40.088Z,73.19
2022-09-28T20:52:08.786Z,72.65
2022-09-28T20:54:38.075Z,72.51
2022-09-28T20:57:17.433Z,72.38
2022-09-28T21:00:16.701Z,72.37
2022-09-28T21:11:35.944Z,72.94
2022-09-28T21:14:47.682Z,74.11
2022-09-28T21:18:16.987Z,74.37
2022-09-28T21:21:25.722Z,73.33
2022-09-28T21:24:27.758Z,73.19
2022-09-28T21:27:40.748Z,73.08
2022-09-28T21:31:10.743Z,72.71
2022-09-28T21:34:23.733Z,72.72
2022-09-28T21:37:36.701Z,73.02
2022-09-28T21:40:49.856Z,73.94
2022-09-28T21:44:05.736Z,73.38
2022-09-28T21:47:39.847Z,73.06
2022-09-28T21:50:58.688Z,73.09
2022-09-28T21:54:16.815Z,72.81
2022-09-28T22:00:59.656Z,72.52
2022-09-28T22:04:12.808Z,74.79
2022-09-28T22:07:38.753Z,73.96
2022-09-28T22:10:54.343Z,75.09
2022-09-28T22:13:59.732Z,75.14
2022-09-28T22:17:13.688Z,75.73
2022-09-28T22:20:33.723Z,75.40
2022-09-28T22:24:12.106Z,75.56
2022-09-28T22:27:22.728Z,76.16
2022-09-28T22:30:38.717Z,76.34
2022-09-28T22:40:50.894Z,77.60
2022-09-28T22:47:36.198Z,77.84
2022-09-28T22:51:01.621Z,77.61
2022-09-28T22:54:30.721Z,76.71
2022-09-28T23:05:02.740Z,76.34
2022-09-28T23:08:54.740Z,76.57
2022-09-28T23:15:39.782Z,77.71
2022-09-28T23:18:51.734Z,78.40
2022-09-28T23:25:49.930Z,79.07
2022-09-28T23:29:01.780Z,79.06
2022-09-28T23:32:14.691Z,78.12
2022-09-28T23:38:42.101Z,77.87
2022-09-28T23:41:48.752Z,77.92
2022-09-28T23:44:32.971Z,78.01
2022-09-28T23:47:02.620Z,77.63
2022-09-28T23:49:32.905Z,77.43
2022-09-28T23:52:01.212Z,79.22
2022-09-28T23:54:31.564Z,78.61
2022-09-28T23:57:07.408Z,78.61
2022-09-28T23:59:35.998Z,80.88
